createdAt,value
2017-08-07T14:41:11.546Z,39.90
2017-08-07T14:43:55.824Z,41.60
2017-08-07T14:46:22.335Z,39.60
2017-08-07T14:48:49.359Z,38.10
2017-08-07T14:51:15.645Z,37.90
2017-08-07T14:53:42.655Z,37.60
2017-08-07T14:56:08.927Z,37.60
2017-08-07T14:58:35.193Z,37.60
2017-08-07T15:01:01.442Z,37.20
2017-08-07T15:03:27.784Z,37.60
2017-08-07T15:05:54.076Z,37.40
2017-08-07T15:08:20.340Z,36.10
2017-08-07T15:10:47.033Z,39.00
2017-08-07T15:13:13.343Z,39.20
2017-08-07T15:15:39.605Z,37.80
2017-08-07T15:18:05.886Z,39.60
2017-08-07T15:20:32.202Z,37.80
2017-08-07T15:22:58.476Z,36.60
2017-08-07T15:25:25.780Z,36.10
2017-08-07T15:27:52.956Z,37.20
2017-08-07T15:30:19.236Z,37.20
2017-08-07T15:32:45.524Z,37.90
2017-08-07T15:35:11.784Z,38.50
2017-08-07T15:37:38.779Z,38.90
2017-08-07T15:40:05.023Z,38.70
2017-08-07T15:42:31.284Z,37.70
2017-08-07T15:44:57.549Z,38.80
2017-08-07T15:47:23.795Z,38.20
2017-08-07T15:49:50.075Z,38.00
2017-08-07T15:52:16.315Z,40.20
2017-08-07T15:54:42.564Z,38.10
2017-08-07T15:57:09.570Z,38.00
2017-08-07T15:59:35.806Z,37.60
2017-08-07T16:02:02.078Z,36.80
2017-08-07T16:04:28.359Z,37.70
2017-08-07T16:06:54.702Z,37.40
2017-08-07T16:09:20.955Z,37.40
2017-08-07T16:11:47.206Z,39.60
2017-08-07T16:14:13.451Z,37.40
2017-08-07T16:16:40.455Z,39.30
2017-08-07T16:19:06.714Z,39.30
2017-08-07T16:21:32.968Z,37.90
2017-08-07T16:23:59.224Z,37.30
2017-08-07T16:26:25.688Z,37.60
2017-08-07T16:28:52.014Z,38.30
2017-08-07T16:31:18.269Z,37.60
2017-08-07T16:33:44.549Z,37.90
2017-08-07T16:36:11.579Z,38.90
2017-08-07T16:38:37.850Z,38.70
2017-08-07T16:41:04.192Z,39.60
2017-08-07T16:43:30.462Z,37.50
2017-08-07T16:45:57.475Z,42.60
2017-08-07T16:48:23.728Z,42.60
2017-08-07T16:50:49.985Z,39.80
2017-08-07T16:53:16.263Z,37.70
2017-08-07T16:55:43.299Z,41.00
2017-08-07T16:58:09.569Z,41.10
2017-08-07T17:00:35.858Z,41.80
2017-08-07T17:03:02.139Z,38.90
2017-08-07T17:05:28.428Z,40.10
2017-08-07T17:07:55.480Z,36.00
2017-08-07T17:10:21.765Z,36.00
2017-08-07T17:12:48.065Z,35.50
2017-08-07T17:15:14.361Z,35.20
2017-08-07T17:17:40.676Z,35.30
2017-08-07T17:20:06.973Z,36.00
2017-08-07T17:22:33.237Z,36.10
2017-08-07T17:24:59.518Z,35.90
2017-08-07T17:27:26.583Z,35.70
2017-08-07T17:29:53.608Z,35.40
2017-08-07T17:32:19.994Z,35.80
2017-08-07T17:34:47.003Z,37.60
2017-08-07T17:37:13.297Z,38.00
2017-08-07T17:39:39.562Z,41.30
2017-08-07T17:42:05.860Z,40.00
2017-08-07T17:44:32.122Z,41.50
2017-08-07T17:46:58.388Z,40.10
2017-08-07T17:49:24.681Z,40.50
2017-08-07T17:51:50.980Z,39.50
2017-08-07T17:54:17.293Z,37.80
2017-08-07T17:56:43.551Z,39.20
2017-08-07T17:59:09.803Z,41.30
2017-08-07T18:01:36.067Z,41.00
2017-08-07T18:04:02.341Z,41.70
2017-08-07T18:06:29.355Z,42.40
2017-08-07T18:08:55.611Z,42.40
2017-08-07T18:11:21.874Z,41.80
2017-08-07T18:13:48.192Z,39.60
2017-08-07T18:16:14.446Z,42.60
2017-08-07T18:18:40.753Z,40.50
2017-08-07T18:21:07.034Z,40.30
2017-08-07T18:23:33.278Z,41.40
2017-08-07T18:25:59.557Z,43.70
2017-08-07T18:28:25.855Z,44.10
2017-08-07T18:30:52.136Z,41.20
2017-08-07T18:33:18.416Z,44.20
2017-08-07T18:35:44.697Z,44.70
2017-08-07T18:38:10.973Z,44.40
2017-08-07T18:40:37.245Z,44.50
2017-08-07T18:43:03.498Z,44.70
2017-08-07T18:45:29.762Z,45.00
2017-08-07T18:47:56.763Z,44.40
2017-08-07T18:50:23.192Z,44.00
2017-08-07T18:52:49.470Z,45.10
2017-08-07T18:55:15.761Z,43.30
2017-08-07T18:57:48.869Z,43.00
2017-08-07T19:00:15.163Z,44.10
2017-08-07T19:02:41.461Z,44.30
2017-08-07T19:05:07.742Z,45.30
2017-08-07T19:07:34.153Z,44.90
2017-08-07T19:10:00.496Z,45.20
2017-08-07T19:12:27.600Z,45.50
2017-08-07T19:14:54.683Z,45.50
2017-08-07T19:17:21.045Z,45.40
2017-08-07T19:19:47.315Z,46.00
2017-08-07T19:22:13.623Z,45.60
2017-08-07T19:24:39.928Z,45.10
2017-08-07T19:27:06.270Z,45.70
2017-08-07T19:29:32.624Z,46.00
2017-08-07T19:31:59.015Z,45.20
2017-08-07T19:34:25.350Z,45.00
2017-08-07T19:36:51.746Z,45.20
2017-08-07T19:39:18.024Z,45.20
2017-08-07T19:41:44.475Z,46.20
2017-08-07T19:44:10.918Z,49.20
2017-08-07T19:46:37.208Z,47.20
2017-08-07T19:49:03.505Z,47.10
2017-08-07T19:51:29.831Z,46.40
2017-08-07T19:53:56.148Z,46.90
2017-08-07T19:56:22.466Z,47.80
2017-08-07T19:58:48.752Z,47.10
2017-08-07T20:01:15.076Z,48.70
2017-08-07T20:03:42.127Z,48.30
2017-08-07T20:06:08.442Z,48.10
2017-08-07T20:08:34.746Z,48.20
2017-08-07T20:11:01.759Z,48.60
2017-08-07T20:13:28.065Z,48.50
2017-08-07T20:15:54.367Z,49.30
2017-08-07T20:18:20.672Z,47.60
2017-08-07T20:20:46.941Z,47.50
2017-08-07T20:23:13.231Z,47.60
2017-08-07T20:25:39.491Z,48.30
2017-08-07T20:28:06.540Z,50.10
2017-08-07T20:30:32.841Z,50.00
2017-08-07T20:32:59.144Z,49.10
2017-08-07T20:35:25.397Z,50.70
2017-08-07T20:37:51.672Z,48.60
2017-08-07T20:40:17.931Z,50.10
2017-08-07T20:42:44.253Z,48.60
2017-08-07T20:45:10.556Z,48.80
2017-08-07T20:47:36.834Z,49.80
2017-08-07T20:50:03.849Z,49.50
2017-08-07T20:52:30.116Z,49.50
2017-08-07T20:54:56.422Z,50.60
2017-08-07T20:57:22.720Z,49.60
2017-08-07T20:59:48.984Z,49.80
2017-08-07T21:02:15.261Z,49.00
2017-08-07T21:04:41.564Z,49.10
2017-08-07T21:07:07.841Z,49.20
2017-08-07T21:09:34.879Z,49.90
2017-08-07T21:12:01.177Z,49.90
2017-08-07T21:14:34.412Z,51.50
2017-08-07T21:17:00.681Z,50.60
2017-08-07T21:19:27.698Z,49.30
2017-08-07T21:21:53.976Z,49.40
2017-08-07T21:24:20.255Z,50.60
2017-08-07T21:26:47.279Z,51.00
2017-08-07T21:29:13.522Z,50.40
2017-08-07T21:31:39.828Z,50.80
2017-08-07T21:34:06.094Z,51.20
2017-08-07T21:36:32.357Z,49.80
2017-08-07T21:38:58.628Z,50.20
2017-08-07T21:41:24.888Z,49.50
2017-08-07T21:43:51.165Z,50.00
2017-08-07T21:46:17.427Z,50.30
2017-08-07T21:48:43.729Z,49.80
2017-08-07T21:51:10.036Z,49.50
2017-08-07T21:53:36.306Z,50.00
2017-08-07T21:56:02.570Z,49.90
2017-08-07T21:58:28.915Z,49.80
2017-08-07T22:00:55.976Z,51.60
2017-08-07T22:03:22.230Z,51.00
2017-08-07T22:05:48.502Z,50.20
2017-08-07T22:08:15.520Z,50.80
2017-08-07T22:10:41.788Z,50.80
2017-08-07T22:13:08.069Z,50.70
2017-08-07T22:15:35.106Z,51.80
2017-08-07T22:18:01.371Z,51.70
2017-08-07T22:20:28.387Z,50.90
2017-08-07T22:22:54.688Z,50.90
2017-08-07T22:25:21.708Z,51.10
2017-08-07T22:27:47.995Z,51.10
2017-08-07T22:30:15.084Z,51.70
2017-08-07T22:32:41.366Z,51.80
2017-08-07T22:35:07.643Z,52.40
2017-08-07T22:37:33.909Z,52.10
2017-08-07T22:40:00.191Z,52.50
2017-08-07T22:42:26.486Z,52.20
2017-08-07T22:44:52.801Z,52.00
2017-08-07T22:47:19.092Z,52.30
2017-08-07T22:49:46.121Z,52.40
2017-08-07T22:52:12.427Z,52.50
2017-08-07T22:54:38.722Z,52.10
2017-08-07T22:57:04.985Z,52.40
2017-08-07T22:59:31.284Z,52.20
2017-08-07T23:01:57.581Z,53.10
2017-08-07T23:04:23.842Z,53.10
2017-08-07T23:06:50.219Z,52.60
2017-08-07T23:09:16.510Z,52.90
2017-08-07T23:11:42.794Z,52.70
2017-08-07T23:14:09.072Z,53.80
2017-08-07T23:16:35.373Z,54.10
2017-08-07T23:19:02.388Z,54.20
2017-08-07T23:21:28.668Z,53.60
2017-08-07T23:23:55.024Z,53.90
2017-08-07T23:26:21.273Z,53.90
2017-08-07T23:28:48.120Z,54.40
2017-08-07T23:31:14.404Z,54.30
2017-08-07T23:33:41.411Z,54.30
2017-08-07T23:36:07.691Z,54.30
2017-08-07T23:38:33.976Z,54.50
2017-08-07T23:41:00.280Z,54.30
2017-08-07T23:43:27.314Z,54.40
2017-08-07T23:45:53.574Z,54.30
2017-08-07T23:48:19.828Z,54.40
2017-08-07T23:50:46.095Z,54.80
2017-08-07T23:53:12.364Z,55.00
2017-08-07T23:55:38.664Z,54.60
2017-08-07T23:58:04.935Z,54.40
